createdAt,value
2023-05-10T00:00:26.588Z,3.67
2023-05-10T00:03:11.991Z,3.47
2023-05-10T00:05:39.091Z,3.70
2023-05-10T00:08:05.930Z,3.67
2023-05-10T00:10:32.960Z,3.73
2023-05-10T00:12:59.746Z,3.37
2023-05-10T00:15:26.816Z,3.50
2023-05-10T00:17:53.566Z,3.13
2023-05-10T00:20:20.735Z,3.53
2023-05-10T00:22:47.445Z,3.60
2023-05-10T00:25:14.747Z,3.20
2023-05-10T00:27:41.523Z,3.30
2023-05-10T00:30:09.035Z,3.30
2023-05-10T00:32:35.929Z,3.27
2023-05-10T00:35:03.140Z,3.10
2023-05-10T00:37:29.994Z,3.43
2023-05-10T00:39:57.017Z,3.17
2023-05-10T00:42:23.912Z,3.40
2023-05-10T00:44:53.267Z,3.57
2023-05-10T00:47:20.139Z,3.23
2023-05-10T00:49:47.345Z,3.53
2023-05-10T00:52:14.261Z,3.40
2023-05-10T00:54:42.737Z,3.70
2023-05-10T00:57:09.686Z,3.63
2023-05-10T00:59:36.800Z,3.30
2023-05-10T01:02:03.978Z,3.87
2023-05-10T01:04:31.576Z,3.80
2023-05-10T01:06:58.360Z,4.10
2023-05-10T01:09:27.392Z,4.10
2023-05-10T01:11:55.430Z,3.83
2023-05-10T01:14:23.390Z,3.97
2023-05-10T01:16:51.035Z,4.17
2023-05-10T01:19:22.898Z,4.00
2023-05-10T01:22:27.402Z,4.27
2023-05-10T01:25:20.462Z,4.43
2023-05-10T01:28:24.944Z,4.37
2023-05-10T01:31:36.728Z,4.43
2023-05-10T01:34:09.833Z,4.37
2023-05-10T01:36:59.631Z,5.03
2023-05-10T01:39:37.760Z,4.60
2023-05-10T01:42:12.689Z,4.63
2023-05-10T01:44:47.562Z,4.47
2023-05-10T01:47:26.990Z,4.23
2023-05-10T01:49:56.638Z,3.97
2023-05-10T01:52:31.172Z,4.87
2023-05-10T01:55:07.548Z,4.60
2023-05-10T01:57:40.742Z,4.50
2023-05-10T02:00:09.334Z,4.37
2023-05-10T02:02:49.687Z,4.80
2023-05-10T02:05:18.366Z,4.17
2023-05-10T02:07:46.471Z,4.63
2023-05-10T02:10:15.469Z,4.53
2023-05-10T02:12:45.904Z,4.37
2023-05-10T02:15:16.515Z,4.50
2023-05-10T02:17:47.171Z,4.13
2023-05-10T02:20:17.165Z,5.00
2023-05-10T02:22:48.076Z,4.73
2023-05-10T02:25:16.604Z,4.07
2023-05-10T02:27:45.635Z,4.27
2023-05-10T02:30:13.201Z,4.40
2023-05-10T02:32:41.034Z,4.23
2023-05-10T02:35:09.346Z,5.37
2023-05-10T02:37:38.522Z,4.20
2023-05-10T02:40:07.300Z,4.93
2023-05-10T02:42:37.921Z,4.83
2023-05-10T02:45:11.286Z,4.50
2023-05-10T02:47:38.983Z,5.03
2023-05-10T02:50:06.521Z,4.53
2023-05-10T02:52:50.767Z,4.33
2023-05-10T02:55:22.381Z,4.87
2023-05-10T02:57:55.633Z,4.30
2023-05-10T03:00:22.603Z,4.77
2023-05-10T03:02:49.771Z,4.50
2023-05-10T03:05:17.051Z,4.53
2023-05-10T03:07:44.485Z,4.47
2023-05-10T03:10:11.539Z,4.30
2023-05-10T03:13:18.742Z,4.97
2023-05-10T03:16:11.001Z,4.30
2023-05-10T03:18:45.608Z,4.30
2023-05-10T03:21:14.632Z,4.50
2023-05-10T03:23:51.549Z,4.90
2023-05-10T03:26:26.727Z,4.37
2023-05-10T03:29:02.070Z,4.87
2023-05-10T03:31:29.230Z,5.00
2023-05-10T03:33:56.498Z,4.60
2023-05-10T03:36:26.650Z,4.50
2023-05-10T03:38:54.407Z,4.30
2023-05-10T03:41:21.733Z,4.40
2023-05-10T03:43:48.933Z,4.87
2023-05-10T03:46:15.848Z,4.17
2023-05-10T03:48:43.047Z,4.87
2023-05-10T03:51:09.807Z,4.23
2023-05-10T03:53:36.891Z,4.33
2023-05-10T03:56:03.853Z,4.30
2023-05-10T03:58:30.885Z,4.37
2023-05-10T04:00:58.838Z,4.27
2023-05-10T04:03:26.893Z,4.20
2023-05-10T04:06:03.468Z,4.70
2023-05-10T04:08:30.713Z,4.30
2023-05-10T04:11:08.524Z,4.20
2023-05-10T04:13:36.227Z,4.57
2023-05-10T04:16:03.720Z,3.83
2023-05-10T04:18:31.129Z,4.40
2023-05-10T04:20:57.878Z,4.57
2023-05-10T04:23:24.830Z,4.57
2023-05-10T04:25:51.639Z,4.53
2023-05-10T04:28:18.658Z,4.50
2023-05-10T04:30:45.553Z,4.23
2023-05-10T04:33:12.712Z,3.93
2023-05-10T04:35:40.953Z,4.33
2023-05-10T04:38:08.088Z,4.60
2023-05-10T04:40:35.425Z,4.10
2023-05-10T04:43:02.490Z,4.73
2023-05-10T04:45:29.232Z,4.10
2023-05-10T04:47:56.369Z,4.50
2023-05-10T04:50:23.488Z,3.97
2023-05-10T04:52:50.552Z,3.73
2023-05-10T04:55:17.250Z,4.27
2023-05-10T04:57:44.259Z,4.70
2023-05-10T05:00:11.885Z,4.33
2023-05-10T05:02:38.921Z,3.87
2023-05-10T05:05:06.287Z,4.30
2023-05-10T05:07:33.354Z,4.10
2023-05-10T05:10:00.056Z,3.87
2023-05-10T05:12:27.109Z,3.87
2023-05-10T05:14:53.810Z,3.63
2023-05-10T05:17:20.841Z,3.70
2023-05-10T05:19:47.750Z,3.13
2023-05-10T05:22:14.847Z,4.07
2023-05-10T05:24:41.638Z,3.73
2023-05-10T05:27:08.682Z,3.63
2023-05-10T05:29:35.454Z,3.30
2023-05-10T05:32:02.625Z,3.60
2023-05-10T05:34:29.486Z,3.27
2023-05-10T05:36:56.840Z,2.97
2023-05-10T05:39:23.598Z,3.10
2023-05-10T05:41:50.740Z,3.93
2023-05-10T05:44:17.431Z,3.40
2023-05-10T05:46:44.449Z,2.83
2023-05-10T05:49:11.261Z,3.27
2023-05-10T05:51:38.440Z,2.80
2023-05-10T05:54:05.405Z,3.03
2023-05-10T05:56:32.577Z,2.93
2023-05-10T05:58:59.321Z,3.37
2023-05-10T06:01:26.396Z,2.70
2023-05-10T06:03:53.557Z,3.07
2023-05-10T06:06:20.860Z,3.30
2023-05-10T06:08:47.632Z,2.90
2023-05-10T06:11:14.676Z,3.17
2023-05-10T06:13:41.553Z,2.78
2023-05-10T06:16:08.665Z,2.43
2023-05-10T06:18:35.718Z,3.33
2023-05-10T06:21:02.855Z,2.83
2023-05-10T06:23:29.865Z,2.83
2023-05-10T06:25:57.014Z,3.30
2023-05-10T06:28:23.737Z,3.03
2023-05-10T06:30:50.747Z,3.33
2023-05-10T06:33:17.511Z,2.63
2023-05-10T06:35:44.298Z,2.67
2023-05-10T06:38:11.651Z,2.72
2023-05-10T06:40:42.418Z,2.65
2023-05-10T06:43:09.732Z,3.22
2023-05-10T06:45:39.781Z,2.42
2023-05-10T06:48:07.339Z,2.35
2023-05-10T06:50:34.437Z,2.30
2023-05-10T06:53:02.836Z,2.63
2023-05-10T06:55:30.287Z,2.45
2023-05-10T06:57:57.388Z,2.80
2023-05-10T07:00:24.175Z,2.40
2023-05-10T07:02:52.010Z,2.70
2023-05-10T07:05:19.372Z,2.72
2023-05-10T07:07:46.592Z,2.70
2023-05-10T07:10:13.315Z,3.90
2023-05-10T07:12:40.707Z,2.58
2023-05-10T07:15:08.328Z,2.85
2023-05-10T07:17:35.358Z,2.53
2023-05-10T07:20:02.662Z,2.75
2023-05-10T07:22:29.762Z,2.47
2023-05-10T07:24:56.467Z,2.72
2023-05-10T07:27:23.527Z,2.45
2023-05-10T07:29:50.295Z,2.40
2023-05-10T07:32:17.569Z,2.33
2023-05-10T07:34:44.263Z,2.78
2023-05-10T07:37:11.269Z,2.28
2023-05-10T07:39:38.415Z,2.22
2023-05-10T07:42:05.528Z,2.40
2023-05-10T07:44:32.318Z,2.45
2023-05-10T07:46:59.283Z,2.60
2023-05-10T07:49:26.815Z,2.40
2023-05-10T07:51:53.808Z,2.22
2023-05-10T07:54:20.559Z,2.08
2023-05-10T07:56:48.211Z,2.30
2023-05-10T07:59:18.562Z,2.22
2023-05-10T08:01:46.086Z,2.70
2023-05-10T08:04:13.088Z,2.42
2023-05-10T08:06:41.173Z,2.28
2023-05-10T08:09:08.382Z,2.30
2023-05-10T08:11:36.227Z,2.50
2023-05-10T08:14:03.027Z,2.25
2023-05-10T08:16:30.219Z,2.70
2023-05-10T08:18:57.397Z,2.00
2023-05-10T08:21:24.500Z,2.70
2023-05-10T08:23:51.318Z,2.60
2023-05-10T08:26:18.348Z,2.15
2023-05-10T08:28:45.238Z,2.20
2023-05-10T08:31:12.223Z,2.65
2023-05-10T08:33:38.989Z,2.17
2023-05-10T08:36:06.120Z,2.33
2023-05-10T08:38:32.998Z,2.55
2023-05-10T08:41:01.727Z,2.42
2023-05-10T08:43:32.481Z,2.20
2023-05-10T08:46:03.750Z,2.17
2023-05-10T08:48:32.001Z,2.50
2023-05-10T08:51:01.253Z,2.38
2023-05-10T08:53:29.875Z,2.58
2023-05-10T08:55:57.459Z,2.65
2023-05-10T08:58:24.439Z,2.10
2023-05-10T09:00:54.174Z,2.15
2023-05-10T09:03:20.960Z,1.98
2023-05-10T09:05:49.458Z,2.00
2023-05-10T09:08:17.440Z,2.10
2023-05-10T09:10:45.561Z,2.78
2023-05-10T09:13:16.073Z,2.47
2023-05-10T09:15:45.323Z,1.98
2023-05-10T09:18:12.820Z,2.50
2023-05-10T09:20:39.879Z,2.13
2023-05-10T09:23:07.105Z,2.20
2023-05-10T09:25:34.653Z,2.95
2023-05-10T09:28:01.723Z,2.40
2023-05-10T09:30:32.166Z,2.20
2023-05-10T09:33:00.740Z,2.25
2023-05-10T09:35:30.460Z,2.35
2023-05-10T09:38:00.179Z,1.77
2023-05-10T09:40:29.356Z,2.20
2023-05-10T09:42:57.495Z,3.17
2023-05-10T09:45:27.059Z,2.00
2023-05-10T09:47:54.082Z,2.13
2023-05-10T09:50:21.997Z,2.08
2023-05-10T09:52:52.094Z,2.20
2023-05-10T09:55:21.866Z,2.33
2023-05-10T09:57:49.812Z,1.90
2023-05-10T10:00:20.994Z,2.25
2023-05-10T10:02:59.372Z,2.00
2023-05-10T10:05:34.028Z,1.98
2023-05-10T10:08:03.634Z,2.65
2023-05-10T10:10:31.939Z,2.42
2023-05-10T10:12:59.333Z,2.03
2023-05-10T10:15:27.031Z,2.67
2023-05-10T10:17:54.999Z,2.65
2023-05-10T10:20:23.691Z,2.50
2023-05-10T10:22:50.718Z,2.40
2023-05-10T10:25:19.777Z,2.90
2023-05-10T10:27:52.732Z,2.13
2023-05-10T10:30:44.732Z,3.22
2023-05-10T10:33:30.537Z,2.97
2023-05-10T10:36:01.020Z,2.47
2023-05-10T10:38:38.856Z,3.40
2023-05-10T10:41:11.202Z,2.30
2023-05-10T10:43:37.977Z,2.92
2023-05-10T10:46:19.196Z,3.30
2023-05-10T10:48:52.660Z,2.72
2023-05-10T10:51:19.732Z,2.63
2023-05-10T10:53:48.942Z,2.70
2023-05-10T10:56:16.575Z,3.13
2023-05-10T10:58:54.668Z,2.80
2023-05-10T11:01:22.173Z,2.95
2023-05-10T11:04:01.136Z,2.72
2023-05-10T11:06:35.167Z,2.72
2023-05-10T11:09:09.475Z,2.53
2023-05-10T11:11:49.121Z,3.00
2023-05-10T11:14:21.298Z,2.85
2023-05-10T11:16:48.436Z,2.55
2023-05-10T11:19:17.479Z,2.67
2023-05-10T11:22:14.616Z,2.75
2023-05-10T11:24:57.131Z,5.13
2023-05-10T11:27:24.307Z,2.88
2023-05-10T11:29:53.905Z,2.33
2023-05-10T11:32:21.386Z,5.43
2023-05-10T11:34:49.301Z,2.47
2023-05-10T11:37:16.353Z,2.42
2023-05-10T11:39:48.315Z,2.65
2023-05-10T11:42:15.534Z,2.33
2023-05-10T11:44:42.968Z,2.47
2023-05-10T11:47:10.256Z,2.92
2023-05-10T11:49:37.128Z,2.75
2023-05-10T11:52:08.132Z,2.50
2023-05-10T11:54:38.081Z,2.55
2023-05-10T11:57:05.305Z,2.70
2023-05-10T11:59:32.111Z,2.90
2023-05-10T12:01:59.418Z,2.10
2023-05-10T12:04:27.122Z,2.60
2023-05-10T12:06:54.178Z,2.30
2023-05-10T12:09:35.298Z,3.10
2023-05-10T12:12:07.117Z,2.08
2023-05-10T12:14:36.118Z,2.47
2023-05-10T12:17:03.361Z,2.60
2023-05-10T12:19:38.356Z,2.10
2023-05-10T12:22:06.908Z,2.70
2023-05-10T12:24:39.074Z,2.42
2023-05-10T12:29:53.189Z,2.63
2023-05-10T12:32:20.427Z,2.60
2023-05-10T12:34:47.980Z,2.30
2023-05-10T12:37:15.158Z,2.08
2023-05-10T12:39:43.622Z,2.25
2023-05-10T12:42:11.523Z,2.33
2023-05-10T12:44:38.485Z,3.28
2023-05-10T12:47:05.606Z,2.28
2023-05-10T12:49:32.332Z,2.42
2023-05-10T12:51:59.537Z,1.88
2023-05-10T12:54:26.236Z,2.00
2023-05-10T12:56:53.219Z,2.25
2023-05-10T12:59:19.920Z,2.60
2023-05-10T13:01:46.963Z,2.70
2023-05-10T13:04:13.761Z,2.70
2023-05-10T13:06:40.910Z,2.47
2023-05-10T13:09:07.901Z,2.38
2023-05-10T13:11:35.272Z,2.20
2023-05-10T13:14:04.101Z,2.47
2023-05-10T13:16:31.521Z,2.50
2023-05-10T13:18:59.435Z,2.90
2023-05-10T13:21:26.794Z,2.50
2023-05-10T13:23:54.087Z,2.45
2023-05-10T13:26:21.258Z,2.60
2023-05-10T13:28:48.032Z,2.35
2023-05-10T13:31:15.093Z,2.60
2023-05-10T13:33:41.886Z,2.08
2023-05-10T13:36:09.165Z,2.50
2023-05-10T13:38:35.900Z,2.60
2023-05-10T13:41:02.879Z,2.35
2023-05-10T13:43:30.421Z,2.30
2023-05-10T13:45:57.871Z,2.47
2023-05-10T13:48:24.756Z,2.83
2023-05-10T13:50:51.785Z,2.38
2023-05-10T13:53:18.479Z,2.63
2023-05-10T13:55:46.604Z,2.50
2023-05-10T13:58:13.915Z,2.08
2023-05-10T14:00:41.224Z,2.30
2023-05-10T14:03:10.250Z,2.83
2023-05-10T14:05:37.814Z,2.80
2023-05-10T14:08:05.078Z,2.50
2023-05-10T14:10:32.177Z,2.42
2023-05-10T14:12:59.034Z,2.20
2023-05-10T14:15:26.137Z,2.40
2023-05-10T14:17:52.905Z,2.70
2023-05-10T14:20:19.941Z,2.47
2023-05-10T14:22:46.658Z,2.60
2023-05-10T14:25:15.540Z,2.50
2023-05-10T14:27:42.441Z,2.42
2023-05-10T14:30:09.929Z,2.72
2023-05-10T14:32:37.719Z,2.95
2023-05-10T14:35:05.116Z,2.53
2023-05-10T14:37:32.094Z,2.63
2023-05-10T14:39:59.134Z,2.63
2023-05-10T14:42:25.865Z,2.45
2023-05-10T14:44:52.855Z,3.03
2023-05-10T14:47:19.638Z,2.72
2023-05-10T14:49:46.692Z,2.47
2023-05-10T14:52:13.460Z,2.28
2023-05-10T14:54:41.240Z,2.70
2023-05-10T14:57:08.122Z,2.88
2023-05-10T14:59:35.298Z,2.25
2023-05-10T15:02:02.666Z,2.40
2023-05-10T15:04:30.466Z,2.95
2023-05-10T15:07:00.918Z,2.47
2023-05-10T15:09:30.846Z,2.40
2023-05-10T15:11:57.620Z,2.53
2023-05-10T15:14:25.686Z,2.60
2023-05-10T15:16:52.424Z,10.20
2023-05-10T15:19:20.597Z,6.15
2023-05-10T15:21:48.306Z,2.92
2023-05-10T15:24:15.593Z,2.30
2023-05-10T15:26:42.347Z,2.85
2023-05-10T15:29:09.576Z,3.08
2023-05-10T15:31:36.840Z,2.70
2023-05-10T15:34:04.114Z,4.45
2023-05-10T15:36:33.134Z,4.97
2023-05-10T15:39:00.194Z,3.22
2023-05-10T15:41:26.979Z,4.25
2023-05-10T15:43:54.563Z,3.83
2023-05-10T15:46:21.467Z,2.38
2023-05-10T15:48:48.521Z,2.95
2023-05-10T15:51:15.818Z,2.50
2023-05-10T15:53:56.425Z,3.53
2023-05-10T15:56:27.685Z,2.10
2023-05-10T15:58:54.796Z,2.28
2023-05-10T16:01:21.889Z,2.20
2023-05-10T16:03:48.937Z,2.65
2023-05-10T16:06:15.717Z,2.42
2023-05-10T16:08:42.831Z,2.50
2023-05-10T16:11:09.648Z,2.60
2023-05-10T16:13:36.701Z,2.10
2023-05-10T16:16:04.003Z,2.53
2023-05-10T16:18:31.270Z,2.78
2023-05-10T16:20:59.281Z,2.65
2023-05-10T16:23:26.514Z,3.17
2023-05-10T16:25:53.232Z,2.30
2023-05-10T16:28:23.225Z,2.45
2023-05-10T16:30:50.055Z,3.20
2023-05-10T16:33:17.070Z,2.53
2023-05-10T16:35:43.907Z,2.60
2023-05-10T16:38:11.352Z,2.53
2023-05-10T16:40:38.209Z,3.22
2023-05-10T16:43:05.151Z,2.88
2023-05-10T16:45:32.640Z,3.17
2023-05-10T16:47:59.975Z,3.25
2023-05-10T16:50:26.786Z,2.35
2023-05-10T16:52:53.855Z,2.38
2023-05-10T16:55:21.519Z,2.60
2023-05-10T16:57:50.014Z,3.58
2023-05-10T17:00:17.092Z,2.92
2023-05-10T17:02:44.310Z,3.55
2023-05-10T17:05:11.233Z,2.08
2023-05-10T17:07:38.433Z,2.40
2023-05-10T17:10:05.762Z,2.60
2023-05-10T17:12:32.772Z,2.28
2023-05-10T17:14:59.503Z,2.25
2023-05-10T17:17:26.878Z,2.40
2023-05-10T17:19:53.600Z,2.75
2023-05-10T17:22:20.753Z,2.38
2023-05-10T17:24:47.710Z,3.10
2023-05-10T17:27:14.998Z,2.95
2023-05-10T17:29:42.181Z,2.35
2023-05-10T17:32:09.353Z,2.42
2023-05-10T17:34:36.853Z,3.10
2023-05-10T17:37:03.996Z,3.38
2023-05-10T17:39:30.924Z,3.05
2023-05-10T17:41:58.204Z,2.88
2023-05-10T17:44:25.946Z,2.55
2023-05-10T17:46:53.210Z,2.95
2023-05-10T17:49:19.984Z,3.05
2023-05-10T17:51:48.160Z,5.40
2023-05-10T17:54:15.195Z,2.50
2023-05-10T17:56:42.241Z,2.60
2023-05-10T17:59:08.982Z,2.67
2023-05-10T18:01:36.083Z,2.67
2023-05-10T18:04:02.948Z,2.85
2023-05-10T18:06:30.084Z,2.85
2023-05-10T18:08:56.839Z,4.85
2023-05-10T18:11:23.952Z,3.53
2023-05-10T18:13:50.717Z,3.28
2023-05-10T18:16:18.658Z,3.05
2023-05-10T18:18:45.508Z,4.30
2023-05-10T18:21:12.713Z,3.80
2023-05-10T18:23:39.597Z,4.82
2023-05-10T18:26:08.050Z,3.85
2023-05-10T18:28:34.774Z,4.30
2023-05-10T18:31:01.761Z,3.08
2023-05-10T18:33:28.616Z,3.28
2023-05-10T18:35:55.644Z,6.75
2023-05-10T18:38:22.548Z,8.02
2023-05-10T18:40:49.574Z,5.07
2023-05-10T18:43:16.750Z,4.32
2023-05-10T18:45:44.013Z,3.17
2023-05-10T18:48:10.791Z,4.00
2023-05-10T18:50:37.964Z,2.88
2023-05-10T18:53:04.820Z,4.22
2023-05-10T18:55:31.819Z,3.75
2023-05-10T18:57:58.633Z,4.43
2023-05-10T19:00:26.213Z,4.15
2023-05-10T19:02:53.674Z,3.95
2023-05-10T19:05:20.948Z,3.42
2023-05-10T19:07:47.677Z,3.80
2023-05-10T19:10:14.665Z,3.63
2023-05-10T19:12:41.804Z,3.08
2023-05-10T19:15:09.344Z,4.05
2023-05-10T19:17:36.758Z,3.17
2023-05-10T19:20:05.810Z,2.95
2023-05-10T19:22:47.221Z,3.30
2023-05-10T19:25:20.367Z,3.10
2023-05-10T19:27:47.086Z,3.45
2023-05-10T19:30:14.602Z,3.80
2023-05-10T19:32:44.088Z,3.58
2023-05-10T19:35:12.712Z,3.65
2023-05-10T19:37:39.496Z,3.78
2023-05-10T19:40:08.360Z,3.67
2023-05-10T19:42:35.290Z,3.45
2023-05-10T19:45:02.322Z,3.33
2023-05-10T19:47:29.185Z,3.25
2023-05-10T19:49:56.201Z,2.88
2023-05-10T19:52:23.017Z,2.75
2023-05-10T19:54:49.978Z,3.30
2023-05-10T19:57:16.866Z,2.83
2023-05-10T19:59:43.826Z,2.85
2023-05-10T20:02:10.614Z,2.70
2023-05-10T20:04:37.681Z,3.50
2023-05-10T20:07:04.624Z,3.60
2023-05-10T20:09:31.668Z,2.70
2023-05-10T20:11:59.513Z,3.22
2023-05-10T20:14:26.812Z,3.47
2023-05-10T20:16:53.578Z,4.60
2023-05-10T20:19:20.677Z,4.07
2023-05-10T20:21:47.407Z,4.18
2023-05-10T20:24:14.376Z,11.25
2023-05-10T20:26:41.128Z,9.52
2023-05-10T20:29:09.400Z,3.85
2023-05-10T20:31:36.183Z,2.88
2023-05-10T20:34:03.194Z,3.28
2023-05-10T20:36:30.171Z,3.17
2023-05-10T20:38:57.120Z,3.55
2023-05-10T20:41:24.724Z,3.60
2023-05-10T20:43:51.842Z,3.22
2023-05-10T20:46:18.949Z,3.10
2023-05-10T20:48:45.957Z,2.90
2023-05-10T20:51:12.686Z,3.38
2023-05-10T20:53:39.698Z,2.80
2023-05-10T20:56:06.532Z,2.45
2023-05-10T20:58:33.563Z,3.13
2023-05-10T21:01:01.251Z,3.20
2023-05-10T21:03:28.326Z,3.22
2023-05-10T21:05:55.083Z,3.50
2023-05-10T21:08:22.062Z,3.03
2023-05-10T21:10:48.933Z,3.38
2023-05-10T21:13:16.119Z,3.17
2023-05-10T21:15:42.864Z,3.15
2023-05-10T21:18:09.815Z,3.15
2023-05-10T21:20:36.517Z,2.55
2023-05-10T21:23:03.619Z,3.10
2023-05-10T21:25:30.955Z,3.47
2023-05-10T21:27:58.227Z,3.47
2023-05-10T21:30:25.073Z,3.53
2023-05-10T21:32:52.191Z,3.53
2023-05-10T21:35:18.966Z,3.05
2023-05-10T21:37:46.066Z,3.42
2023-05-10T21:40:13.090Z,4.00
2023-05-10T21:42:40.090Z,3.45
2023-05-10T21:45:07.309Z,3.13
2023-05-10T21:47:34.355Z,3.35
2023-05-10T21:50:01.413Z,3.33
2023-05-10T21:52:28.428Z,3.13
2023-05-10T21:54:55.214Z,3.40
2023-05-10T21:57:22.290Z,3.78
2023-05-10T21:59:49.031Z,3.03
2023-05-10T22:02:16.115Z,3.33
2023-05-10T22:04:42.939Z,3.80
2023-05-10T22:07:09.913Z,3.67
2023-05-10T22:09:36.618Z,3.30
2023-05-10T22:12:03.776Z,3.42
2023-05-10T22:14:30.709Z,3.63
2023-05-10T22:16:58.031Z,3.85
2023-05-10T22:19:24.753Z,4.03
2023-05-10T22:21:52.762Z,3.10
2023-05-10T22:24:19.543Z,3.75
2023-05-10T22:26:46.604Z,4.32
2023-05-10T22:29:13.338Z,3.30
2023-05-10T22:31:40.883Z,3.80
2023-05-10T22:34:07.896Z,3.60
2023-05-10T22:36:35.525Z,3.67
2023-05-10T22:39:02.292Z,3.50
2023-05-10T22:41:29.268Z,3.42
2023-05-10T22:43:55.950Z,3.78
2023-05-10T22:46:22.949Z,3.20
2023-05-10T22:48:51.392Z,3.42
2023-05-10T22:51:21.659Z,3.90
2023-05-10T22:53:48.708Z,3.45
2023-05-10T22:56:15.904Z,3.35
2023-05-10T22:58:42.955Z,3.63
2023-05-10T23:01:10.106Z,3.17
2023-05-10T23:03:36.840Z,3.58
2023-05-10T23:06:04.166Z,3.70
2023-05-10T23:08:31.000Z,3.20
2023-05-10T23:10:58.061Z,2.97
2023-05-10T23:13:24.889Z,3.30
2023-05-10T23:15:51.891Z,3.10
2023-05-10T23:18:18.812Z,3.50
2023-05-10T23:20:45.874Z,3.38
2023-05-10T23:23:12.626Z,3.45
2023-05-10T23:25:39.654Z,3.55
2023-05-10T23:28:06.403Z,3.50
2023-05-10T23:30:33.542Z,3.27
2023-05-10T23:33:00.414Z,3.88
2023-05-10T23:35:27.635Z,3.38
2023-05-10T23:37:55.217Z,3.23
2023-05-10T23:40:22.206Z,3.10
2023-05-10T23:42:49.080Z,3.37
2023-05-10T23:45:16.115Z,3.43
2023-05-10T23:47:43.039Z,3.47
2023-05-10T23:50:10.667Z,3.47
2023-05-10T23:52:37.462Z,3.00
2023-05-10T23:55:04.665Z,3.33
2023-05-10T23:57:31.398Z,3.27
2023-05-10T23:59:58.369Z,3.13
